1995 A19495 (1994275S05062)


On this page: IBTrACS data - Map and Plots - Positions - Intensities - Original source data

Summary

Start Oct 2
End Oct 7
Basin SI
LMI 30 kt
Source reunion
In WMO? Yes
Previous storm 1994 SETH (WP)
Previous in basin 1994 WILLY (SI)
Concurrent storms 1994 ORCHID (WP)
1994 TD0928 (WP)
1994 SETH (WP)
1995 A19495 (SI)
Next in basin Missing
Next storm 1994 ROSA (EP)

top of page IBTrACS Data: File Access

Image of storm

top of page Plots:

Map of storm track will not appear if FTP is down
Time series of cyclone Maximum Sustained Wind will not appear if FTP is down
Time series of cyclone Minimum Central Pressure will not appear if FTP is down

top of page Track Data:Position

reunion
Date Lat Lon
1994-10-02 06:00:00 -5.1 62.0
1994-10-02 12:00:00 -5.7 61.8
1994-10-02 18:00:00 -6.1 61.5
1994-10-03 00:00:00 -6.5 61.1
1994-10-03 06:00:00 -6.9 60.6
1994-10-03 12:00:00 -7.2 59.6
1994-10-03 18:00:00 -7.5 58.5
1994-10-04 00:00:00 -7.8 57.5
1994-10-04 06:00:00 -8.1 56.2
1994-10-04 12:00:00 -8.1 54.5
1994-10-04 18:00:00 -8.2 52.9
1994-10-05 00:00:00 -8.7 51.1
1994-10-05 06:00:00 -9.1 49.9
1994-10-05 12:00:00 -9.0 48.6
1994-10-05 18:00:00 -8.8 47.3
1994-10-06 00:00:00 -8.7 46.8
1994-10-06 06:00:00 -8.6 46.6
1994-10-06 12:00:00 -8.5 45.9
1994-10-06 18:00:00 -8.0 45.3
1994-10-07 00:00:00 -7.2 44.9

top of pageTrack Data:Intensity

reunion
Date Wind Pres
1994-10-02 06:00:00 25. 1002.
1994-10-02 12:00:00 25. 1000.
1994-10-02 18:00:00 25. 1000.
1994-10-03 00:00:00 25. 1000.
1994-10-03 06:00:00 25. 1000.
1994-10-03 12:00:00 25. 1000.
1994-10-03 18:00:00 25. 1000.
1994-10-04 00:00:00 28. 997.
1994-10-04 06:00:00 28. 997.
1994-10-04 12:00:00 28. 997.
1994-10-04 18:00:00 28. 997.
1994-10-05 00:00:00 30. 995.
1994-10-05 06:00:00 30. 995.
1994-10-05 12:00:00 28. 997.
1994-10-05 18:00:00 28. 997.
1994-10-06 00:00:00 28. 997.
1994-10-06 06:00:00 25. 1000.
1994-10-06 12:00:00 25. 1000.
1994-10-06 18:00:00 25. 1000.
1994-10-07 00:00:00 20. 1002.

top of page Links to source data

Source Source file Format
reunion WMO-Best-Tracks.txt:Line=16746:a19495 WMO (old format)